Time;durP1;ratioP1;P1;durP2;ratioP2;P2;SDS_P1;SDS_P2;PMS_P1;PMS_P2;Temp;Humidity;BMP_temperature;BMP_pressure;BME280_temperature;BME280_humidity;BME280_pressure;Samples;Min_cycle;Max_cycle;Signal;HPM_P1;HPM_P2
2021/03/28 00:01:02;;;;;;;4.95;3.40;;;11.60;96.70;;;;;;4939734;29;20039;-76
2021/03/28 00:03:35;;;;;;;5.53;3.17;;;11.70;96.70;;;;;;4938818;28;20454;-76
2021/03/28 00:06:20;;;;;;;6.88;3.17;;;11.60;96.70;;;;;;4942554;28;20047;-76
2021/03/28 00:09:07;;;;;;;3.95;3.28;;;11.60;96.70;;;;;;4941292;29;20394;-76
2021/03/28 00:11:50;;;;;;;4.72;3.60;;;11.50;96.70;;;;;;4935368;28;20130;-76
2021/03/28 00:14:24;;;;;;;5.43;3.67;;;11.40;96.70;;;;;;4943151;29;20051;-76
2021/03/28 00:16:52;;;;;;;9.15;4.68;;;11.40;96.70;;;;;;4916958;29;20043;-76
2021/03/28 00:19:24;;;;;;;8.98;4.25;;;11.30;96.70;;;;;;4939414;29;20048;-76
2021/03/28 00:21:54;;;;;;;7.25;4.30;;;11.20;96.70;;;;;;4939771;28;20039;-76
2021/03/28 00:24:26;;;;;;;5.05;3.50;;;11.10;96.70;;;;;;4943284;29;20122;-75
2021/03/28 00:27:06;;;;;;;5.55;3.63;;;11.10;96.70;;;;;;4926909;29;20223;-76
2021/03/28 00:29:47;;;;;;;7.30;3.58;;;11.10;96.70;;;;;;4928807;29;20082;-76
2021/03/28 00:32:19;;;;;;;5.75;3.65;;;11.10;96.70;;;;;;4934371;29;20466;-76
2021/03/28 00:34:51;;;;;;;7.78;3.50;;;11.20;96.70;;;;;;4941733;29;20472;-76
2021/03/28 00:37:25;;;;;;;6.07;3.72;;;11.20;96.70;;;;;;4938942;29;20082;-76
2021/03/28 00:39:56;;;;;;;4.32;3.20;;;11.10;96.70;;;;;;4935944;28;20039;-75
2021/03/28 00:42:29;;;;;;;5.95;3.47;;;11.00;96.70;;;;;;4941700;29;20620;-75
2021/03/28 00:45:00;;;;;;;7.28;4.13;;;11.00;96.70;;;;;;4925033;29;20147;-76
2021/03/28 00:47:31;;;;;;;11.15;4.68;;;11.10;96.70;;;;;;4925586;29;20390;-75
2021/03/28 00:50:09;;;;;;;6.68;4.45;;;11.10;96.70;;;;;;4925653;29;20052;-76
2021/03/28 00:52:43;;;;;;;6.40;4.60;;;11.10;96.70;;;;;;4927325;29;20126;-76
2021/03/28 00:55:17;;;;;;;6.25;4.40;;;11.10;96.70;;;;;;4941486;28;20441;-76
2021/03/28 00:58:07;;;;;;;6.38;4.53;;;11.10;96.70;;;;;;4938866;29;20055;-76
2021/03/28 01:00:57;;;;;;;7.50;5.05;;;11.00;96.70;;;;;;4925760;29;20352;-76
2021/03/28 01:03:35;;;;;;;5.32;4.75;;;11.00;96.70;;;;;;4933570;29;20043;-76
2021/03/28 01:06:14;;;;;;;8.38;5.68;;;11.00;96.70;;;;;;4938934;28;20051;-76
2021/03/28 01:08:54;;;;;;;8.05;5.18;;;11.00;96.70;;;;;;4935939;28;20106;-76
2021/03/28 01:11:43;;;;;;;9.23;5.53;;;10.90;96.70;;;;;;4923983;28;20039;-76
2021/03/28 01:14:22;;;;;;;7.30;5.68;;;10.80;96.70;;;;;;4932732;29;20055;-76
2021/03/28 01:17:19;;;;;;;10.18;5.85;;;10.80;96.70;;;;;;4940838;29;20482;-76
2021/03/28 01:20:12;;;;;;;9.68;6.10;;;10.80;96.70;;;;;;4922615;29;20409;-76
2021/03/28 01:22:48;;;;;;;9.18;5.55;;;10.70;96.70;;;;;;4920028;29;20055;-75
2021/03/28 01:25:36;;;;;;;7.93;5.20;;;10.70;96.70;;;;;;4937983;28;20072;-76
2021/03/28 01:28:15;;;;;;;7.95;5.55;;;10.70;96.70;;;;;;4925396;28;20525;-76
2021/03/28 01:30:48;;;;;;;7.57;4.70;;;10.60;96.70;;;;;;4941003;29;20535;-75
2021/03/28 01:33:22;;;;;;;8.60;5.47;;;10.60;96.70;;;;;;4934409;29;20044;-76
2021/03/28 01:36:01;;;;;;;7.90;5.45;;;10.70;96.70;;;;;;4940171;29;20054;-76
2021/03/28 01:38:34;;;;;;;8.55;5.25;;;10.70;96.70;;;;;;4940921;28;20055;-76
2021/03/28 01:41:07;;;;;;;9.70;6.07;;;10.70;96.70;;;;;;4922283;29;20090;-75
2021/03/28 01:43:46;;;;;;;6.57;5.45;;;10.60;96.70;;;;;;4940835;28;20035;-76
2021/03/28 01:46:22;;;;;;;6.82;5.53;;;10.70;96.70;;;;;;4925190;29;20054;-76
2021/03/28 01:48:54;;;;;;;7.05;4.75;;;10.80;96.70;;;;;;4925039;29;20050;-76
2021/03/28 01:51:42;;;;;;;6.97;5.43;;;10.80;96.70;;;;;;4940610;29;20054;-75
2021/03/28 01:54:16;;;;;;;7.72;5.90;;;10.90;96.70;;;;;;4937787;28;20043;-75
2021/03/28 01:56:55;;;;;;;8.25;5.03;;;10.80;96.70;;;;;;4924368;28;20056;-75
2021/03/28 01:59:35;;;;;;;7.75;5.28;;;10.80;96.70;;;;;;4939451;29;20141;-75
2021/03/28 02:02:09;;;;;;;9.68;5.85;;;10.90;96.70;;;;;;4942997;29;20767;-75
2021/03/28 02:04:47;;;;;;;9.18;6.13;;;10.90;96.70;;;;;;4943225;29;20138;-75
2021/03/28 02:07:30;;;;;;;10.32;5.90;;;10.90;96.70;;;;;;4925948;29;20044;-76
2021/03/28 02:10:13;;;;;;;7.82;5.43;;;10.80;96.70;;;;;;4928380;29;20126;-75
2021/03/28 02:12:45;;;;;;;8.45;5.53;;;10.80;96.70;;;;;;4946154;28;20454;-76
2021/03/28 02:15:30;;;;;;;8.02;5.65;;;10.70;96.70;;;;;;4929688;29;20058;-76
2021/03/28 02:18:13;;;;;;;8.30;5.78;;;10.60;96.70;;;;;;4928987;29;20106;-76
2021/03/28 02:20:51;;;;;;;7.82;5.53;;;10.60;96.70;;;;;;4944112;28;20785;-75
2021/03/28 02:23:36;;;;;;;6.50;5.30;;;10.50;96.70;;;;;;4935980;29;20125;-75
2021/03/28 02:26:16;;;;;;;11.13;5.28;;;10.50;96.70;;;;;;4928327;29;20553;-76
2021/03/28 02:28:55;;;;;;;7.60;4.93;;;10.30;96.70;;;;;;4943022;29;20150;-75
2021/03/28 02:31:31;;;;;;;5.57;4.38;;;10.30;96.70;;;;;;4940377;28;20126;-76
2021/03/28 02:34:10;;;;;;;7.40;4.40;;;10.30;96.70;;;;;;4926064;29;20573;-76
2021/03/28 02:36:42;;;;;;;5.88;4.20;;;10.20;96.70;;;;;;4931057;29;20130;-76
2021/03/28 02:39:17;;;;;;;5.60;4.22;;;10.30;96.70;;;;;;4940619;29;20593;-75
2021/03/28 02:41:53;;;;;;;6.07;4.30;;;10.30;96.70;;;;;;4939714;28;20051;-75
2021/03/28 02:44:36;;;;;;;6.68;4.78;;;10.40;96.70;;;;;;4940982;29;20067;-76
2021/03/28 02:47:17;;;;;;;9.02;4.75;;;10.40;96.70;;;;;;4942764;28;20130;-75
2021/03/28 02:49:56;;;;;;;5.53;4.13;;;10.40;96.70;;;;;;4940267;28;20044;-75
2021/03/28 02:52:39;;;;;;;4.78;3.72;;;10.40;96.70;;;;;;4942691;29;20150;-75
2021/03/28 02:55:37;;;;;;;5.43;3.45;;;10.40;96.70;;;;;;4926237;29;20055;-76
2021/03/28 02:58:18;;;;;;;5.07;3.70;;;10.40;96.70;;;;;;4944669;29;20048;-75
2021/03/28 03:01:02;;;;;;;4.53;3.70;;;10.40;96.70;;;;;;4939756;28;20047;-76
2021/03/28 03:03:54;;;;;;;6.43;4.03;;;10.50;96.70;;;;;;4943800;29;20387;-75
2021/03/28 03:06:43;;;;;;;5.82;4.25;;;10.50;96.70;;;;;;4923989;29;20051;-76
2021/03/28 03:09:22;;;;;;;4.95;4.45;;;10.50;96.70;;;;;;4926806;29;20050;-75
2021/03/28 03:12:08;;;;;;;8.07;5.20;;;10.60;96.70;;;;;;4943005;29;20047;-75
2021/03/28 03:14:54;;;;;;;6.70;4.60;;;10.60;96.70;;;;;;4937510;29;20047;-75
2021/03/28 03:17:47;;;;;;;8.27;5.00;;;10.60;96.70;;;;;;4943335;29;20078;-76
2021/03/28 03:20:43;;;;;;;6.85;4.57;;;10.60;96.70;;;;;;4934266;29;20047;-76
2021/03/28 03:23:33;;;;;;;6.50;5.50;;;10.60;96.70;;;;;;4939721;28;20055;-75
2021/03/28 03:26:28;;;;;;;5.57;4.57;;;10.70;96.70;;;;;;4941135;29;20067;-75
2021/03/28 03:29:23;;;;;;;7.30;4.82;;;10.70;96.70;;;;;;4941374;28;20074;-75
2021/03/28 03:32:00;;;;;;;7.95;5.72;;;10.70;96.70;;;;;;4941917;29;20042;-75
2021/03/28 03:34:46;;;;;;;8.65;5.40;;;10.70;96.70;;;;;;4941978;28;20126;-75
2021/03/28 03:37:35;;;;;;;6.40;5.05;;;10.60;96.70;;;;;;4943180;29;20119;-75
2021/03/28 03:40:16;;;;;;;6.03;4.80;;;10.60;96.70;;;;;;4928594;29;20050;-75
2021/03/28 03:43:00;;;;;;;7.68;5.32;;;10.60;96.70;;;;;;4936196;28;20043;-75
2021/03/28 03:45:47;;;;;;;6.05;4.95;;;10.60;96.70;;;;;;4939568;29;20055;-75
2021/03/28 03:48:22;;;;;;;7.85;5.15;;;10.50;96.70;;;;;;4927488;29;20113;-75
2021/03/28 03:51:01;;;;;;;6.78;4.95;;;10.50;96.70;;;;;;4922666;29;20219;-75
2021/03/28 03:53:44;;;;;;;6.45;4.63;;;10.40;96.70;;;;;;4938713;29;20071;-74
2021/03/28 03:56:20;;;;;;;7.93;5.28;;;10.40;96.70;;;;;;4939589;29;20042;-75
2021/03/28 03:59:06;;;;;;;7.00;5.30;;;10.50;96.70;;;;;;4937546;28;20043;-75
2021/03/28 04:01:39;;;;;;;5.60;4.78;;;10.50;96.70;;;;;;4933910;28;20099;-75
2021/03/28 04:04:12;;;;;;;6.07;4.93;;;10.60;96.70;;;;;;4937936;28;20183;-75
2021/03/28 04:07:04;;;;;;;8.23;5.13;;;10.60;96.70;;;;;;4923036;29;20075;-76
2021/03/28 04:09:43;;;;;;;6.15;4.90;;;10.60;96.70;;;;;;4930625;29;20044;-75
2021/03/28 04:12:23;;;;;;;11.73;6.07;;;10.50;96.70;;;;;;4921587;29;20047;-75
2021/03/28 04:15:13;;;;;;;7.85;5.15;;;10.50;96.70;;;;;;4914804;29;20832;-75
2021/03/28 04:17:58;;;;;;;5.88;4.60;;;10.50;96.70;;;;;;4922699;29;20516;-75
2021/03/28 04:20:35;;;;;;;5.80;4.97;;;10.60;96.70;;;;;;4917033;29;20043;-76
2021/03/28 04:23:27;;;;;;;8.02;5.20;;;10.60;96.70;;;;;;4921477;29;20155;-75
2021/03/28 04:26:06;;;;;;;7.15;5.10;;;10.60;96.70;;;;;;4938398;29;20048;-75
2021/03/28 04:28:51;;;;;;;6.35;5.03;;;10.60;96.70;;;;;;4921673;29;20633;-75
2021/03/28 04:31:43;;;;;;;7.10;5.28;;;10.60;96.70;;;;;;4937023;29;20044;-75
2021/03/28 04:34:17;;;;;;;6.15;5.07;;;10.60;96.70;;;;;;4919362;29;20567;-75
2021/03/28 04:36:57;;;;;;;7.13;5.00;;;10.60;96.70;;;;;;4934870;28;20040;-75
2021/03/28 04:39:46;;;;;;;7.30;5.43;;;10.60;96.70;;;;;;4938756;29;20043;-75
2021/03/28 04:42:43;;;;;;;6.88;5.03;;;10.70;96.70;;;;;;4922650;29;20102;-75
2021/03/28 04:45:33;;;;;;;5.80;4.63;;;10.60;96.70;;;;;;4918379;29;20050;-75
2021/03/28 04:48:27;;;;;;;6.88;5.53;;;10.60;96.70;;;;;;4917044;29;20059;-74
2021/03/28 04:51:12;;;;;;;8.73;5.78;;;10.60;96.70;;;;;;4935374;28;20519;-75
2021/03/28 04:54:09;;;;;;;6.03;5.10;;;10.60;96.70;;;;;;4921043;29;20043;-75
2021/03/28 04:56:55;;;;;;;7.25;5.65;;;10.60;96.70;;;;;;4920459;29;20075;-75
2021/03/28 04:59:46;;;;;;;7.05;5.40;;;10.60;96.70;;;;;;4920660;29;20040;-75
2021/03/28 05:02:24;;;;;;;7.53;5.07;;;10.60;96.70;;;;;;4918084;29;20048;-75
2021/03/28 05:05:17;;;;;;;9.43;5.35;;;10.70;96.70;;;;;;4937518;28;20115;-75
2021/03/28 05:08:14;;;;;;;5.97;4.80;;;10.70;96.70;;;;;;4931611;29;20142;-75
2021/03/28 05:11:06;;;;;;;7.35;5.30;;;10.70;96.70;;;;;;4933577;28;20126;-75
2021/03/28 05:13:57;;;;;;;8.32;5.15;;;10.60;96.70;;;;;;4939135;28;20052;-75
2021/03/28 05:16:59;;;;;;;6.60;5.03;;;10.60;96.70;;;;;;4936609;29;20055;-75
2021/03/28 05:19:57;;;;;;;7.47;4.60;;;10.60;96.70;;;;;;4941581;28;20636;-75
2021/03/28 05:22:52;;;;;;;6.63;4.53;;;10.70;96.70;;;;;;4939378;29;20035;-75
2021/03/28 05:25:47;;;;;;;6.70;4.38;;;10.80;96.70;;;;;;4926782;29;20055;-75
2021/03/28 05:28:45;;;;;;;6.70;4.30;;;10.70;96.70;;;;;;4941383;28;20392;-75
2021/03/28 05:31:37;;;;;;;6.07;4.43;;;10.70;96.70;;;;;;4940944;29;20062;-75
2021/03/28 05:34:25;;;;;;;5.90;4.03;;;10.70;96.70;;;;;;4928488;29;20094;-75
2021/03/28 05:37:23;;;;;;;7.88;4.53;;;10.60;96.70;;;;;;4931602;29;20067;-75
2021/03/28 05:40:11;;;;;;;7.13;4.38;;;10.70;96.70;;;;;;4935473;28;20057;-75
2021/03/28 05:43:03;;;;;;;7.50;4.45;;;10.80;96.70;;;;;;4944988;28;20047;-75
2021/03/28 05:45:45;;;;;;;7.40;4.93;;;10.70;96.70;;;;;;4943574;29;20054;-75
2021/03/28 05:48:39;;;;;;;7.60;5.07;;;10.70;96.70;;;;;;4938227;28;20047;-75
2021/03/28 05:51:35;;;;;;;6.32;4.97;;;10.70;96.70;;;;;;4928300;29;20865;-75
2021/03/28 05:54:32;;;;;;;7.70;5.40;;;10.60;96.70;;;;;;4945183;28;20634;-74
2021/03/28 05:57:27;;;;;;;7.22;5.75;;;10.60;96.70;;;;;;4938428;28;20401;-74
2021/03/28 06:00:08;;;;;;;6.60;5.10;;;10.60;96.70;;;;;;4945317;28;20047;-74
2021/03/28 06:03:05;;;;;;;7.38;5.95;;;10.60;96.70;;;;;;4925457;29;20466;-74
2021/03/28 06:06:04;;;;;;;9.45;6.95;;;10.60;96.70;;;;;;4938280;28;20061;-74
2021/03/28 06:08:55;;;;;;;12.77;7.25;;;10.60;96.70;;;;;;4941904;29;20081;-75
2021/03/28 06:11:53;;;;;;;12.23;7.65;;;10.60;96.70;;;;;;4913884;28;20055;-75
2021/03/28 06:14:31;;;;;;;;;;;10.60;96.70;;;;;;4941915;29;20062;-75
2021/03/28 06:17:15;;;;;;;10.90;8.77;;;10.60;96.70;;;;;;4945835;28;19927;-75
2021/03/28 06:20:17;;;;;;;12.75;8.75;;;10.60;96.70;;;;;;4929585;29;20039;-76
2021/03/28 06:23:14;;;;;;;11.63;8.32;;;10.70;96.70;;;;;;4932601;29;20043;-75
2021/03/28 06:26:12;;;;;;;11.67;8.67;;;10.70;96.70;;;;;;4929148;29;20149;-76
2021/03/28 06:29:02;;;;;;;12.23;9.68;;;10.80;96.70;;;;;;4926511;29;20493;-75
2021/03/28 06:32:05;;;;;;;13.80;9.60;;;10.90;96.70;;;;;;4940383;28;20113;-75
2021/03/28 06:34:47;;;;;;;12.20;9.70;;;11.00;96.70;;;;;;4940505;28;20043;-75
2021/03/28 06:37:43;;;;;;;17.38;9.95;;;11.10;96.70;;;;;;4943359;28;20074;-76
2021/03/28 06:40:38;;;;;;;13.55;9.90;;;11.20;96.70;;;;;;4922730;28;20050;-75
2021/03/28 06:43:29;;;;;;;15.27;9.63;;;11.30;96.70;;;;;;4938763;28;20095;-76
2021/03/28 06:46:18;;;;;;;10.95;8.73;;;11.30;96.70;;;;;;4940889;28;20048;-76
2021/03/28 06:49:04;;;;;;;11.80;8.75;;;11.30;96.70;;;;;;4923844;29;20513;-75
2021/03/28 06:51:43;;;;;;;11.23;8.57;;;11.40;96.70;;;;;;4936300;28;20052;-75
2021/03/28 06:54:40;;;;;;;12.00;8.90;;;11.40;96.70;;;;;;4926315;29;20067;-75
2021/03/28 06:57:33;;;;;;;14.07;8.65;;;11.50;96.70;;;;;;4940532;28;20389;-76
2021/03/28 07:00:22;;;;;;;9.98;8.25;;;11.40;96.70;;;;;;4927130;29;20101;-76
2021/03/28 07:03:19;;;;;;;11.07;8.00;;;11.40;96.70;;;;;;4941219;29;20079;-76
2021/03/28 07:05:52;;;;;;;12.48;7.78;;;11.50;96.70;;;;;;4926866;29;20138;-75
2021/03/28 07:08:38;;;;;;;8.43;7.55;;;11.50;96.70;;;;;;4942747;28;20075;-76
2021/03/28 07:11:23;;;;;;;9.10;7.50;;;11.60;96.70;;;;;;4941277;28;20039;-75
2021/03/28 07:14:18;;;;;;;10.18;7.85;;;11.80;96.70;;;;;;4943084;28;20045;-76
2021/03/28 07:17:10;;;;;;;8.88;7.32;;;11.80;96.70;;;;;;4941909;29;20043;-76
2021/03/28 07:20:05;;;;;;;10.68;7.72;;;11.90;96.70;;;;;;4920992;29;20070;-76
2021/03/28 07:22:59;;;;;;;9.68;7.65;;;11.90;96.70;;;;;;4925875;29;20489;-76
2021/03/28 07:25:45;;;;;;;8.73;7.00;;;12.00;96.70;;;;;;4936974;28;20585;-76
2021/03/28 07:28:48;;;;;;;11.20;8.32;;;12.10;96.70;;;;;;4941140;28;20057;-75
2021/03/28 07:31:38;;;;;;;10.68;7.63;;;12.10;96.70;;;;;;4938470;29;20051;-76
2021/03/28 07:34:35;;;;;;;10.63;7.65;;;12.20;96.70;;;;;;4942153;28;20083;-76
2021/03/28 07:37:29;;;;;;;9.88;7.70;;;12.20;96.70;;;;;;4936116;29;20062;-76
2021/03/28 07:40:26;;;;;;;8.75;7.95;;;12.30;96.70;;;;;;4940553;28;20039;-76
2021/03/28 07:43:10;;;;;;;10.70;8.48;;;12.40;96.70;;;;;;4937073;28;20062;-76
2021/03/28 07:45:53;;;;;;;12.40;9.43;;;12.50;96.70;;;;;;4940279;29;20142;-76
2021/03/28 07:48:46;;;;;;;11.68;8.75;;;12.60;96.70;;;;;;4926332;29;20504;-76
2021/03/28 07:51:32;;;;;;;12.80;9.35;;;12.70;96.70;;;;;;4934991;28;20049;-76
2021/03/28 07:54:44;;;;;;;15.73;9.88;;;12.80;96.70;;;;;;4938538;28;20051;-77
2021/03/28 07:57:37;;;;;;;15.73;10.73;;;12.90;96.70;;;;;;4936003;28;20051;-76
2021/03/28 08:00:30;;;;;;;16.90;11.90;;;12.90;96.70;;;;;;4939102;29;20031;-76
2021/03/28 08:03:23;;;;;;;17.35;12.32;;;12.90;96.70;;;;;;4926962;29;20157;-76
2021/03/28 08:06:12;;;;;;;18.38;11.43;;;13.10;96.70;;;;;;4942087;29;20097;-76
2021/03/28 08:09:02;;;;;;;12.48;10.25;;;13.20;96.70;;;;;;4903632;29;20131;-76
2021/03/28 08:11:48;;;;;;;14.82;11.82;;;13.20;96.70;;;;;;4903997;29;20123;-77
2021/03/28 08:14:31;;;;;;;16.00;11.60;;;13.30;96.70;;;;;;4902283;29;20053;-76
2021/03/28 08:17:17;;;;;;;16.17;11.75;;;13.40;96.70;;;;;;4902127;29;20159;-77
2021/03/28 08:20:06;;;;;;;13.93;11.02;;;13.40;96.70;;;;;;4913275;29;20144;-78
2021/03/28 08:22:51;;;;;;;14.80;9.95;;;13.50;96.70;;;;;;4915761;29;20051;-78
2021/03/28 08:25:36;;;;;;;15.27;9.93;;;13.60;96.70;;;;;;4904734;29;20487;-76
2021/03/28 08:28:29;;;;;;;12.68;10.07;;;13.60;96.70;;;;;;4904184;29;20040;-76
2021/03/28 08:31:11;;;;;;;15.93;10.15;;;13.70;96.70;;;;;;4900869;29;20059;-76
2021/03/28 08:34:08;;;;;;;12.18;9.60;;;13.80;96.70;;;;;;4897327;29;20087;-76
2021/03/28 08:36:55;;;;;;;12.75;8.93;;;14.00;96.70;;;;;;4899687;29;20473;-76
2021/03/28 08:39:38;;;;;;;10.82;8.90;;;14.10;96.70;;;;;;4909648;29;20254;-78
2021/03/28 08:42:19;;;;;;;12.32;7.75;;;14.20;96.70;;;;;;4901905;29;20155;-76
2021/03/28 08:45:06;;;;;;;9.68;8.05;;;14.30;96.70;;;;;;4903771;29;20147;-77
2021/03/28 08:48:00;;;;;;;11.15;8.07;;;14.40;96.70;;;;;;4899578;29;20047;-77
2021/03/28 08:50:37;;;;;;;12.32;8.02;;;14.50;96.70;;;;;;4901265;29;20036;-77
2021/03/28 08:53:35;;;;;;;10.07;6.82;;;14.70;96.70;;;;;;4917391;29;20052;-78
2021/03/28 08:56:24;;;;;;;10.30;7.40;;;14.70;96.70;;;;;;4918408;29;20507;-77
2021/03/28 08:58:55;;;;;;;13.85;7.70;;;14.70;96.70;;;;;;4918541;29;20147;-76
2021/03/28 09:01:35;;;;;;;8.95;7.07;;;14.80;96.70;;;;;;4916036;29;20047;-76
2021/03/28 09:04:12;;;;;;;9.05;7.07;;;14.90;96.70;;;;;;4904852;29;20240;-78
2021/03/28 09:06:49;;;;;;;13.93;8.98;;;14.90;96.70;;;;;;4891946;28;20057;-76
2021/03/28 09:09:29;;;;;;;12.23;7.22;;;15.10;96.70;;;;;;4932128;28;20536;-76
2021/03/28 09:12:00;;;;;;;11.82;6.68;;;15.20;96.70;;;;;;4930529;29;20517;-76
2021/03/28 09:14:42;;;;;;;8.93;7.15;;;15.30;96.70;;;;;;4942225;28;20153;-79
2021/03/28 09:17:19;;;;;;;9.88;6.97;;;15.40;96.70;;;;;;4937534;29;20054;-78
2021/03/28 09:20:14;;;;;;;8.07;5.88;;;15.40;96.70;;;;;;4933773;28;20589;-78
2021/03/28 09:22:49;;;;;;;9.68;5.80;;;15.50;96.70;;;;;;4927508;29;20708;-77
2021/03/28 09:25:38;;;;;;;9.23;6.32;;;15.70;96.70;;;;;;4925787;29;20067;-76
2021/03/28 09:28:16;;;;;;;10.18;5.47;;;15.80;96.70;;;;;;4941524;29;20055;-77
2021/03/28 09:30:56;;;;;;;10.95;5.00;;;15.90;96.70;;;;;;4938017;28;20050;-78
2021/03/28 09:33:40;;;;;;;10.30;4.45;;;15.90;96.70;;;;;;4933148;28;20123;-76
2021/03/28 09:36:25;;;;;;;6.85;4.18;;;16.00;96.70;;;;;;4939693;28;20047;-76
2021/03/28 09:39:12;;;;;;;7.35;4.00;;;16.00;96.70;;;;;;4939966;28;20130;-75
2021/03/28 09:41:57;;;;;;;13.93;4.75;;;16.10;96.70;;;;;;4924297;29;20497;-75
2021/03/28 09:44:36;;;;;;;5.88;3.67;;;16.20;96.70;;;;;;4922176;29;20054;-76
2021/03/28 09:47:27;;;;;;;6.40;3.47;;;16.30;96.70;;;;;;4940486;29;20158;-75
2021/03/28 09:50:11;;;;;;;6.65;4.00;;;16.40;96.60;;;;;;4942004;28;20075;-76
2021/03/28 09:53:05;;;;;;;8.55;3.65;;;16.50;96.10;;;;;;4921501;28;20054;-76
2021/03/28 09:56:16;;;;;;;7.60;3.17;;;16.60;95.90;;;;;;4924149;29;20044;-79
2021/03/28 09:59:07;;;;;;;3.90;2.65;;;16.80;95.00;;;;;;4925493;29;20043;-78
2021/03/28 10:01:44;;;;;;;5.32;3.05;;;17.00;93.80;;;;;;4921424;29;20071;-75
2021/03/28 10:04:23;;;;;;;5.38;3.03;;;17.10;93.10;;;;;;4930801;29;20047;-76
2021/03/28 10:06:57;;;;;;;5.10;3.33;;;17.20;92.80;;;;;;4939525;28;20126;-76
2021/03/28 10:09:56;;;;;;;9.63;2.67;;;17.00;92.60;;;;;;4940321;29;20735;-76
2021/03/28 10:12:31;;;;;;;6.40;2.65;;;17.10;92.60;;;;;;4939649;28;20715;-76
2021/03/28 10:15:07;;;;;;;7.60;2.75;;;17.30;92.00;;;;;;4925662;29;20052;-77
2021/03/28 10:17:43;;;;;;;9.57;5.78;;;17.20;91.60;;;;;;4935525;28;20159;-75
2021/03/28 10:20:16;;;;;;;;;;;17.40;91.20;;;;;;4931048;28;20053;-76
2021/03/28 10:22:52;;;;;;;14.15;3.28;;;17.60;91.10;;;;;;4938314;28;20025;-77
2021/03/28 10:25:34;;;;;;;14.15;3.40;;;17.90;90.50;;;;;;4943381;29;20047;-77
2021/03/28 10:28:26;;;;;;;4.97;2.50;;;18.00;89.40;;;;;;4943899;28;20125;-76
2021/03/28 10:31:12;;;;;;;5.45;2.17;;;18.10;89.00;;;;;;4941217;28;20086;-75
2021/03/28 10:33:58;;;;;;;9.13;3.55;;;17.80;88.90;;;;;;4942553;29;20067;-76
2021/03/28 10:36:40;;;;;;;8.20;4.22;;;17.90;87.80;;;;;;4941113;28;20036;-75
2021/03/28 10:39:24;;;;;;;4.10;2.38;;;18.00;87.30;;;;;;4942090;29;20047;-78
2021/03/28 10:42:18;;;;;;;4.05;2.50;;;18.00;86.90;;;;;;4941850;28;21298;-77
2021/03/28 10:45:10;;;;;;;4.55;2.25;;;18.20;86.60;;;;;;4942369;29;20044;-75
2021/03/28 10:48:11;;;;;;;8.43;2.60;;;18.20;85.80;;;;;;4940264;28;20039;-77
2021/03/28 10:51:09;;;;;;;16.92;2.80;;;18.30;85.90;;;;;;4924049;29;20091;-76
2021/03/28 10:53:58;;;;;;;6.90;2.65;;;18.50;84.60;;;;;;4927750;29;20044;-77
2021/03/28 10:57:19;;;;;;;10.13;2.80;;;18.70;83.90;;;;;;4940152;28;20098;-77
2021/03/28 11:00:16;;;;;;;7.70;2.83;;;18.70;84.60;;;;;;4926370;28;20454;-77
2021/03/28 11:03:14;;;;;;;11.67;2.53;;;18.70;84.80;;;;;;4936693;29;20147;-77
2021/03/28 11:06:00;;;;;;;12.15;2.85;;;18.70;84.90;;;;;;4936947;28;20302;-77
2021/03/28 11:08:43;;;;;;;13.15;10.07;;;18.60;85.10;;;;;;4936413;29;20930;-77
2021/03/28 11:11:38;;;;;;;6.13;3.15;;;18.70;84.90;;;;;;4925702;29;20145;-77
2021/03/28 11:14:27;;;;;;;6.13;2.42;;;19.00;84.40;;;;;;4940017;29;20050;-76
2021/03/28 11:17:05;;;;;;;4.35;2.20;;;18.80;84.50;;;;;;4937917;29;20059;-77
2021/03/28 11:19:59;;;;;;;5.47;2.22;;;18.80;84.00;;;;;;4938633;28;20130;-78
2021/03/28 11:22:41;;;;;;;7.25;3.83;;;18.90;84.10;;;;;;4938707;28;20521;-78
2021/03/28 11:25:25;;;;;;;4.85;2.88;;;18.70;84.10;;;;;;4941863;28;20464;-78
2021/03/28 11:28:22;;;;;;;12.18;9.02;;;18.50;83.70;;;;;;4937806;29;20047;-78
2021/03/28 11:31:08;;;;;;;7.00;3.28;;;18.40;83.50;;;;;;4924773;29;20063;-78
2021/03/28 11:33:39;;;;;;;4.05;2.30;;;18.80;82.90;;;;;;4941137;28;20746;-79
2021/03/28 11:36:16;;;;;;;10.90;7.32;;;19.10;83.00;;;;;;4926339;29;20137;-79
2021/03/28 11:39:00;;;;;;;5.15;2.33;;;19.30;82.00;;;;;;4924451;29;20058;-78
2021/03/28 11:41:39;;;;;;;7.82;2.83;;;19.50;80.70;;;;;;4928613;29;20047;-82
2021/03/28 11:44:18;;;;;;;6.80;2.70;;;19.70;82.10;;;;;;4938930;28;20082;-78
2021/03/28 11:46:54;;;;;;;6.78;2.88;;;19.80;81.70;;;;;;4911566;29;20055;-78
2021/03/28 11:49:25;;;;;;;10.07;2.85;;;19.90;81.10;;;;;;4942490;28;20279;-78
2021/03/28 11:52:10;;;;;;;3.78;2.35;;;20.10;80.60;;;;;;4940222;28;20400;-78
2021/03/28 11:54:39;;;;;;;13.57;3.83;;;20.00;80.90;;;;;;4940254;28;20071;-78
2021/03/28 11:57:30;;;;;;;5.07;2.60;;;20.00;79.80;;;;;;4925221;28;20051;-75
2021/03/28 12:00:24;;;;;;;11.65;3.13;;;20.10;79.50;;;;;;4942638;29;20480;-78
2021/03/28 12:03:22;;;;;;;5.32;2.70;;;20.40;79.40;;;;;;4942089;28;20572;-77
2021/03/28 12:05:54;;;;;;;6.20;3.15;;;20.30;79.40;;;;;;4940686;29;20043;-76
2021/03/28 12:08:26;;;;;;;9.98;8.02;;;20.40;78.00;;;;;;4939263;28;20473;-76
2021/03/28 12:10:56;;;;;;;9.82;8.07;;;20.40;77.70;;;;;;4936906;29;20035;-78
2021/03/28 12:13:35;;;;;;;12.43;8.55;;;20.60;78.00;;;;;;4940468;28;20066;-78
2021/03/28 12:16:06;;;;;;;8.10;4.07;;;20.50;77.00;;;;;;4930094;29;20051;-81
2021/03/28 12:18:39;;;;;;;5.60;2.65;;;20.60;77.90;;;;;;4934018;29;20071;-77
2021/03/28 12:21:26;;;;;;;4.18;2.80;;;20.90;77.60;;;;;;4934628;29;20224;-77
2021/03/28 12:23:59;;;;;;;4.45;2.00;;;21.10;76.20;;;;;;4937992;28;20039;-77
2021/03/28 12:26:30;;;;;;;5.38;2.35;;;21.10;76.40;;;;;;4924690;28;20053;-78
2021/03/28 12:29:02;;;;;;;9.20;5.95;;;21.30;77.00;;;;;;4933107;28;20170;-78
2021/03/28 12:31:34;;;;;;;57.65;39.78;;;21.30;75.10;;;;;;4936593;28;20047;-78
2021/03/28 12:34:20;;;;;;;8.75;5.22;;;21.10;74.50;;;;;;4938751;29;20447;-78
2021/03/28 12:36:52;;;;;;;4.95;2.70;;;21.00;76.30;;;;;;4942061;28;20047;-78
2021/03/28 12:39:23;;;;;;;4.47;2.55;;;20.90;76.00;;;;;;4939726;29;20166;-77
2021/03/28 12:42:20;;;;;;;12.32;3.60;;;20.90;75.40;;;;;;4936281;28;20075;-76
2021/03/28 12:44:48;;;;;;;10.43;3.47;;;21.00;74.60;;;;;;4942322;29;20039;-76
2021/03/28 12:47:23;;;;;;;13.38;3.40;;;20.90;75.80;;;;;;4941128;28;20047;-76
2021/03/28 12:49:56;;;;;;;12.60;2.95;;;20.80;76.30;;;;;;4925676;29;20078;-77
2021/03/28 12:52:34;;;;;;;8.95;5.93;;;20.90;76.10;;;;;;4935341;28;20043;-77
2021/03/28 12:55:13;;;;;;;11.55;6.97;;;21.10;73.80;;;;;;4938862;28;20051;-77
2021/03/28 12:57:44;;;;;;;5.45;3.17;;;21.00;73.30;;;;;;4937898;29;20532;-75
2021/03/28 13:00:19;;;;;;;3.85;2.15;;;21.20;73.50;;;;;;4935105;28;20142;-76
2021/03/28 13:02:49;;;;;;;3.33;1.75;;;21.20;73.70;;;;;;4924357;29;20051;-75
2021/03/28 13:05:24;;;;;;;4.35;1.80;;;21.20;72.60;;;;;;4925445;29;20162;-78
2021/03/28 13:07:54;;;;;;;13.25;8.02;;;21.30;72.40;;;;;;4921413;29;20188;-76
2021/03/28 13:10:26;;;;;;;7.60;3.45;;;21.40;71.60;;;;;;4925409;29;20045;-77
2021/03/28 13:13:00;;;;;;;7.13;3.75;;;21.60;71.40;;;;;;4941521;29;20129;-77
2021/03/28 13:15:36;;;;;;;6.72;2.80;;;21.60;70.90;;;;;;4937303;28;20370;-77
2021/03/28 13:18:15;;;;;;;13.07;8.10;;;21.60;71.70;;;;;;4941448;29;20142;-78
2021/03/28 13:20:47;;;;;;;7.15;2.95;;;21.70;72.10;;;;;;4939172;28;20039;-77
2021/03/28 13:23:32;;;;;;;7.78;2.15;;;21.60;72.50;;;;;;4938589;29;20107;-78
2021/03/28 13:26:14;;;;;;;6.22;2.13;;;21.60;72.90;;;;;;4938341;28;20129;-76
2021/03/28 13:28:43;;;;;;;28.05;4.38;;;21.60;72.90;;;;;;4934504;29;20142;-76
2021/03/28 13:31:25;;;;;;;8.55;2.17;;;21.70;72.90;;;;;;4931692;28;20054;-79
2021/03/28 13:33:55;;;;;;;5.40;1.88;;;22.00;73.10;;;;;;4940990;28;20130;-77
2021/03/28 13:36:25;;;;;;;2.92;1.90;;;21.80;72.60;;;;;;4937250;29;20569;-75
2021/03/28 13:39:14;;;;;;;4.80;1.80;;;21.70;71.10;;;;;;4941354;28;20043;-78
2021/03/28 13:42:00;;;;;;;7.65;2.67;;;21.60;71.40;;;;;;4937560;28;20050;-76
2021/03/28 13:44:46;;;;;;;5.97;2.33;;;21.90;72.60;;;;;;4939824;28;20043;-77
2021/03/28 13:47:14;;;;;;;21.45;12.60;;;22.00;71.80;;;;;;4942845;29;20463;-77
2021/03/28 13:49:45;;;;;;;46.58;39.33;;;22.10;71.50;;;;;;4934884;28;20063;-74
2021/03/28 13:52:19;;;;;;;84.38;60.63;;;22.20;70.80;;;;;;4940425;29;20402;-78
2021/03/28 13:55:04;;;;;;;84.13;59.80;;;22.20;71.10;;;;;;4942381;28;20074;-76
2021/03/28 13:57:34;;;;;;;21.13;13.65;;;22.40;70.80;;;;;;4940595;29;20663;-77
2021/03/28 14:00:27;;;;;;;5.40;2.75;;;22.50;71.30;;;;;;4942902;28;20163;-78
2021/03/28 14:02:58;;;;;;;28.67;19.38;;;22.70;71.00;;;;;;4940565;28;20143;-77
2021/03/28 14:05:32;;;;;;;22.90;12.75;;;22.70;70.70;;;;;;4940552;29;20050;-78
2021/03/28 14:08:01;;;;;;;8.30;4.45;;;22.70;70.10;;;;;;4920738;29;20173;-75